Time;durP1;ratioP1;P1;durP2;ratioP2;P2;SDS_P1;SDS_P2;PMS_P1;PMS_P2;Temp;Humidity;BMP_temperature;BMP_pressure;BME280_temperature;BME280_humidity;BME280_pressure;Samples;Min_cycle;Max_cycle;Signal;HPM_P1;HPM_P2
2022/11/02 00:00:42;;;;;;;1.20;0.93;;;;;;;12.98;64.57;101484.06;6066775;29;20233;-77
2022/11/02 00:04:04;;;;;;;5.37;1.27;;;;;;;12.98;64.53;101481.38;6040156;29;20269;-77
2022/11/02 00:07:24;;;;;;;3.50;1.07;;;;;;;13.02;64.30;101481.94;6054374;29;20335;-76
2022/11/02 00:10:47;;;;;;;1.40;1.00;;;;;;;13.03;64.63;101468.28;6061851;29;20233;-72
2022/11/02 00:14:14;;;;;;;3.67;1.57;;;;;;;13.24;63.94;101484.50;6062057;29;20530;-74
2022/11/02 00:17:36;;;;;;;4.90;2.03;;;;;;;13.11;64.09;101471.19;6051801;29;21964;-74
2022/11/02 00:20:57;;;;;;;1.37;1.23;;;;;;;13.08;64.40;101468.75;6071419;29;20233;-77
2022/11/02 00:24:18;;;;;;;2.83;1.10;;;;;;;13.03;64.58;101460.19;6064831;29;20239;-78
2022/11/02 00:27:42;;;;;;;1.00;1.00;;;;;;;13.03;64.29;101462.88;6051121;29;20241;-74
2022/11/02 00:31:03;;;;;;;1.50;0.83;;;;;;;12.99;65.09;101460.59;6041897;29;20248;-79
2022/11/02 00:34:23;;;;;;;2.47;1.10;;;;;;;12.98;64.65;101454.31;6060290;29;20238;-75
2022/11/02 00:37:44;;;;;;;1.90;1.20;;;;;;;13.01;64.90;101462.16;6060654;29;20230;-74
2022/11/02 00:41:05;;;;;;;2.53;1.20;;;;;;;12.99;65.06;101452.47;6069086;29;20264;-72
2022/11/02 00:44:28;;;;;;;2.13;1.73;;;;;;;12.98;64.95;101454.31;6063053;29;20221;-76
2022/11/02 00:47:49;;;;;;;3.40;1.47;;;;;;;12.92;65.37;101445.88;6055692;29;20832;-74
2022/11/02 00:51:10;;;;;;;2.80;1.50;;;;;;;12.92;65.36;101445.88;6065044;29;20597;-72
2022/11/02 00:54:31;;;;;;;3.43;1.13;;;;;;;12.89;65.33;101438.06;6044843;29;20249;-73
2022/11/02 00:57:52;;;;;;;3.23;0.90;;;;;;;12.83;65.79;101447.56;6061399;29;20241;-73
2022/11/02 01:01:14;;;;;;;5.03;1.23;;;;;;;12.81;66.39;101434.16;6059849;29;20233;-74
2022/11/02 01:04:36;;;;;;;12.50;2.43;;;;;;;12.78;65.79;101431.75;6052960;29;20237;-75
2022/11/02 01:07:57;;;;;;;1.37;1.13;;;;;;;12.73;66.18;101431.28;6055334;29;20236;-74
2022/11/02 01:11:20;;;;;;;3.40;2.13;;;;;;;12.71;66.11;101430.56;6058992;29;20253;-75
2022/11/02 01:14:40;;;;;;;2.53;1.30;;;;;;;12.72;66.50;101429.56;6037802;29;20237;-73
2022/11/02 01:18:03;;;;;;;3.50;1.50;;;;;;;12.72;66.23;101418.75;6043578;29;20244;-73
2022/11/02 01:21:24;;;;;;;1.17;1.13;;;;;;;12.72;66.80;101423.31;6065370;29;20256;-72
2022/11/02 01:24:46;;;;;;;3.37;1.20;;;;;;;12.66;66.97;101415.75;6052673;29;20230;-77
2022/11/02 01:28:07;;;;;;;1.00;0.90;;;;;;;12.59;66.67;101415.44;6057577;29;20244;-74
2022/11/02 01:31:27;;;;;;;2.00;1.00;;;;;;;12.58;66.44;101416.41;6061067;29;20229;-73
2022/11/02 01:34:50;;;;;;;7.50;1.37;;;;;;;12.55;66.74;101403.19;6044604;29;20229;-76
2022/11/02 01:38:10;;;;;;;5.10;1.10;;;;;;;12.52;67.38;101403.44;6061794;29;20229;-76
2022/11/02 01:41:31;;;;;;;2.23;1.57;;;;;;;12.56;67.00;101396.75;6072122;29;20233;-72
2022/11/02 01:44:52;;;;;;;5.03;1.87;;;;;;;12.60;67.32;101400.06;6070140;29;20327;-75
2022/11/02 01:48:13;;;;;;;3.60;1.33;;;;;;;12.57;66.88;101398.50;6062746;29;20232;-77
2022/11/02 01:51:40;;;;;;;1.67;1.50;;;;;;;12.53;66.89;101401.59;6063096;29;20233;-75
2022/11/02 01:55:07;;;;;;;4.57;1.23;;;;;;;12.52;67.03;101398.03;6059397;29;20742;-76
2022/11/02 01:58:29;;;;;;;1.47;1.37;;;;;;;12.55;67.39;101392.38;6064464;29;20220;-71
2022/11/02 02:01:50;;;;;;;7.47;1.33;;;;;;;12.54;67.77;101370.84;6059157;29;20233;-74
2022/11/02 02:05:14;;;;;;;1.63;0.97;;;;;;;12.52;67.24;101387.22;6065189;29;20245;-73
2022/11/02 02:08:40;;;;;;;1.40;0.77;;;;;;;12.51;67.50;101384.66;6066376;29;20247;-73
2022/11/02 02:12:01;;;;;;;6.37;1.30;;;;;;;12.53;67.55;101390.78;6063306;29;20237;-74
2022/11/02 02:15:27;;;;;;;2.03;0.90;;;;;;;12.54;67.40;101378.94;6060804;29;21745;-75
2022/11/02 02:18:51;;;;;;;5.07;1.60;;;;;;;12.53;66.85;101378.13;6052968;29;20364;-75
2022/11/02 02:22:46;;;;;;;7.67;1.33;;;;;;;12.52;67.36;101389.06;6066787;29;20321;-75
2022/11/02 02:26:47;;;;;;;13.27;3.40;;;;;;;12.50;67.69;101374.81;6066544;29;20229;-74
2022/11/02 02:30:11;;;;;;;2.43;2.23;;;;;;;12.51;68.02;101366.59;6059040;29;20359;-75
2022/11/02 02:33:35;;;;;;;3.57;1.87;;;;;;;12.52;67.47;101356.59;6061564;29;20276;-76
2022/11/02 02:37:00;;;;;;;4.33;1.27;;;;;;;12.50;67.83;101372.97;6065571;29;20233;-74
2022/11/02 02:40:30;;;;;;;2.30;1.17;;;;;;;12.49;67.28;101363.16;6061833;29;20237;-73
2022/11/02 02:43:54;;;;;;;12.30;1.47;;;;;;;12.48;67.50;101365.97;6061676;29;20220;-73
2022/11/02 02:47:21;;;;;;;1.23;1.00;;;;;;;12.46;68.05;101378.78;6066889;29;20233;-76
2022/11/02 02:50:47;;;;;;;2.13;1.27;;;;;;;12.44;68.31;101375.34;6064538;29;20217;-73
2022/11/02 02:54:12;;;;;;;11.03;1.80;;;;;;;12.48;67.76;101364.13;6065346;29;20610;-73
2022/11/02 02:57:35;;;;;;;1.73;1.20;;;;;;;12.46;67.56;101359.84;6056206;29;20240;-75
2022/11/02 03:00:58;;;;;;;3.33;1.53;;;;;;;12.39;68.94;101364.94;6064106;29;20359;-76
2022/11/02 03:04:20;;;;;;;1.97;1.40;;;;;;;12.38;68.57;101378.59;6065694;29;20236;-71
2022/11/02 03:07:48;;;;;;;3.60;1.40;;;;;;;12.35;69.36;101370.78;6056334;29;20238;-74
2022/11/02 03:11:14;;;;;;;2.83;1.53;;;;;;;12.33;70.13;101361.97;6057029;29;20268;-72
2022/11/02 03:14:48;;;;;;;5.63;1.97;;;;;;;12.36;69.01;101356.25;6043315;29;20576;-72
2022/11/02 03:18:19;;;;;;;1.53;1.13;;;;;;;12.40;69.26;101353.16;6053282;29;20236;-75
2022/11/02 03:21:44;;;;;;;2.40;1.17;;;;;;;12.45;69.96;101368.97;6052762;29;20252;-76
2022/11/02 03:25:14;;;;;;;2.20;0.90;;;;;;;12.36;70.44;101353.56;6052990;29;20241;-78
2022/11/02 03:28:47;;;;;;;5.37;1.77;;;;;;;12.29;70.89;101350.53;6074026;29;20290;-76
2022/11/02 03:32:13;;;;;;;1.37;1.17;;;;;;;12.27;70.56;101352.53;6045806;29;20241;-74
2022/11/02 03:35:41;;;;;;;4.10;1.20;;;;;;;12.32;71.16;101352.97;6062540;29;20233;-74
2022/11/02 03:39:08;;;;;;;4.30;1.97;;;;;;;12.33;71.46;101349.28;6062091;29;20235;-73
2022/11/02 03:42:34;;;;;;;5.13;2.27;;;;;;;12.31;70.97;101344.97;6046710;29;20228;-74
2022/11/02 03:46:01;;;;;;;6.07;1.57;;;;;;;12.30;71.03;101351.41;6061084;29;20256;-76
2022/11/02 03:49:24;;;;;;;2.53;1.30;;;;;;;12.32;71.12;101352.13;6040164;29;20321;-76
2022/11/02 03:52:50;;;;;;;4.47;1.50;;;;;;;12.32;70.77;101350.28;6056817;29;20241;-77
2022/11/02 03:56:19;;;;;;;1.50;1.10;;;;;;;12.36;71.35;101346.31;6062228;29;20328;-76
2022/11/02 03:59:40;;;;;;;3.23;1.53;;;;;;;12.34;71.66;101348.28;6059813;29;20244;-76
2022/11/02 04:03:03;;;;;;;1.53;0.90;;;;;;;12.36;71.56;101362.53;6071174;29;20220;-75
2022/11/02 04:06:27;;;;;;;4.07;1.20;;;;;;;12.30;72.50;101357.66;6067201;29;20521;-74
2022/11/02 04:09:47;;;;;;;12.37;2.63;;;;;;;12.30;72.03;101356.81;6061173;29;20248;-74
2022/11/02 04:16:48;;;;;;;2.53;1.67;;;;;;;12.20;73.62;101367.59;6062942;29;20781;-74
2022/11/02 04:20:15;;;;;;;2.10;1.43;;;;;;;12.25;73.46;101368.03;6049369;29;20240;-74
2022/11/02 04:27:15;;;;;;;4.83;2.30;;;;;;;12.22;73.72;101372.84;6057559;29;20228;-73
2022/11/02 04:30:38;;;;;;;2.67;1.67;;;;;;;12.15;73.35;101369.81;6058959;29;20646;-73
2022/11/02 04:33:59;;;;;;;3.50;1.13;;;;;;;12.11;73.18;101368.38;6053549;29;20272;-74
2022/11/02 04:44:31;;;;;;;1.20;1.00;;;;;;;12.06;74.04;101370.59;6046535;29;20581;-76
2022/11/02 04:48:05;;;;;;;3.37;2.70;;;;;;;12.07;73.91;101360.66;6063300;29;20233;-76
2022/11/02 04:51:29;;;;;;;3.97;1.73;;;;;;;12.12;72.85;101364.66;6074342;29;20232;-78
2022/11/02 04:54:50;;;;;;;3.70;1.30;;;;;;;12.01;73.92;101360.19;6073826;29;20237;-73
2022/11/02 04:58:11;;;;;;;3.53;1.40;;;;;;;12.03;73.79;101368.19;6060981;29;20232;-76
2022/11/02 05:01:33;;;;;;;4.37;2.10;;;;;;;12.01;73.58;101371.00;6064623;29;20324;-78
2022/11/02 05:04:57;;;;;;;4.60;1.80;;;;;;;11.97;73.85;101363.31;6058970;29;20233;-75
2022/11/02 05:08:17;;;;;;;5.03;1.60;;;;;;;11.93;73.90;101362.72;6047540;29;20229;-74
2022/11/02 05:11:38;;;;;;;3.03;1.40;;;;;;;11.89;73.97;101368.53;6056765;29;20240;-78
2022/11/02 05:15:00;;;;;;;3.17;2.00;;;;;;;11.95;74.38;101362.59;6057328;29;20258;-75
2022/11/02 05:18:21;;;;;;;3.20;1.67;;;;;;;11.98;74.06;101374.00;6060759;29;20240;-73
2022/11/02 05:21:44;;;;;;;2.17;1.63;;;;;;;11.96;74.74;101367.00;6061195;29;20246;-74
2022/11/02 05:25:07;;;;;;;1.40;1.07;;;;;;;11.95;74.32;101374.25;6043010;29;20251;-73
2022/11/02 05:28:29;;;;;;;2.53;1.10;;;;;;;11.93;74.28;101383.50;6064795;29;20416;-72
2022/11/02 05:31:50;;;;;;;3.67;1.33;;;;;;;11.96;74.85;101377.81;6053537;29;20236;-77
2022/11/02 05:35:12;;;;;;;3.17;1.40;;;;;;;11.91;75.01;101374.66;6056578;29;20558;-73
2022/11/02 05:38:35;;;;;;;3.23;1.73;;;;;;;12.01;75.02;101367.47;6062926;29;20244;-73
2022/11/02 05:41:56;;;;;;;2.67;1.27;;;;;;;11.93;75.83;101364.59;6061025;29;20598;-74
2022/11/02 05:45:17;;;;;;;3.83;2.87;;;;;;;11.83;75.91;101363.63;6061496;29;20234;-74
2022/11/02 05:48:38;;;;;;;4.37;2.00;;;;;;;11.78;76.58;101371.31;6065850;29;20225;-75
2022/11/02 05:51:59;;;;;;;2.10;1.30;;;;;;;11.76;75.78;101379.53;6060587;29;20237;-74
2022/11/02 05:55:22;;;;;;;1.40;1.27;;;;;;;11.78;75.99;101363.19;6064218;29;20233;-72
2022/11/02 05:58:43;;;;;;;3.83;1.73;;;;;;;11.76;75.74;101370.56;6058985;29;20226;-73
2022/11/02 06:02:04;;;;;;;2.30;1.90;;;;;;;11.76;76.00;101366.03;6036856;29;20880;-73
2022/11/02 06:05:25;;;;;;;7.80;2.63;;;;;;;11.78;76.54;101374.00;6052574;29;20294;-75
2022/11/02 06:08:47;;;;;;;6.33;1.93;;;;;;;11.81;76.65;101373.72;6053707;29;20244;-73
2022/11/02 06:12:10;;;;;;;9.50;1.90;;;;;;;11.85;76.10;101369.75;6027200;29;20241;-78
2022/11/02 06:15:31;;;;;;;5.33;2.40;;;;;;;11.88;76.06;101372.22;6059534;29;20615;-77
2022/11/02 06:18:52;;;;;;;8.73;2.23;;;;;;;11.95;76.31;101371.53;6052624;29;20319;-77
2022/11/02 06:22:13;;;;;;;1.50;0.93;;;;;;;11.98;76.33;101363.19;6052679;29;20261;-77
2022/11/02 06:25:34;;;;;;;3.63;2.60;;;;;;;11.98;75.98;101368.59;6072173;29;20256;-75
2022/11/02 06:28:57;;;;;;;2.57;1.13;;;;;;;12.03;75.99;101369.06;6069340;29;20237;-76
2022/11/02 06:32:18;;;;;;;2.83;1.93;;;;;;;12.02;75.75;101377.28;6050540;29;20237;-77
2022/11/02 06:35:39;;;;;;;3.73;1.87;;;;;;;12.06;76.61;101386.81;6048027;29;20886;-75
2022/11/02 06:39:00;;;;;;;5.83;2.80;;;;;;;12.04;76.99;101388.81;6053709;29;20308;-75
2022/11/02 06:42:21;;;;;;;6.83;3.13;;;;;;;12.08;76.74;101397.53;6030250;29;20246;-77
2022/11/02 06:45:43;;;;;;;3.97;1.50;;;;;;;12.13;76.47;101388.03;6029553;29;21225;-76
2022/11/02 06:49:04;;;;;;;4.30;1.73;;;;;;;12.14;77.30;101387.00;6020270;29;20236;-75
2022/11/02 06:52:25;;;;;;;4.47;1.70;;;;;;;12.16;77.02;101386.91;6005883;29;20412;-77
2022/11/02 06:55:50;;;;;;;9.53;1.80;;;;;;;12.27;77.09;101398.47;6026494;29;20319;-76
2022/11/02 06:59:11;;;;;;;3.63;1.43;;;;;;;12.30;77.28;101384.72;6022819;29;20550;-76
2022/11/02 07:02:34;;;;;;;3.57;2.00;;;;;;;12.33;76.76;101397.09;6008026;29;20323;-77
2022/11/02 07:05:54;;;;;;;4.70;1.37;;;;;;;12.39;76.12;101404.66;6043370;29;21579;-77
2022/11/02 07:09:16;;;;;;;9.17;2.23;;;;;;;12.39;76.79;101396.56;6048037;29;20228;-76
2022/11/02 07:12:37;;;;;;;1.90;1.57;;;;;;;12.48;76.15;101388.47;6043178;29;20241;-75
2022/11/02 07:15:57;;;;;;;4.83;3.00;;;;;;;12.42;76.04;101404.38;6065819;29;20236;-78
2022/11/02 07:19:20;;;;;;;6.03;1.47;;;;;;;12.36;76.25;101386.88;6069261;29;20646;-76
2022/11/02 07:22:41;;;;;;;9.23;2.20;;;;;;;12.36;75.54;101396.81;6054953;29;20237;-76
2022/11/02 07:26:02;;;;;;;6.70;2.73;;;;;;;12.36;75.97;101404.94;6069792;29;20333;-76
2022/11/02 07:29:23;;;;;;;3.10;1.50;;;;;;;12.47;74.92;101405.72;6066375;29;20256;-75
2022/11/02 07:32:45;;;;;;;3.00;1.50;;;;;;;12.53;74.28;101402.47;6051473;29;20225;-77
2022/11/02 07:36:08;;;;;;;11.60;3.13;;;;;;;12.66;74.12;101408.47;6048809;29;20238;-70
2022/11/02 07:39:29;;;;;;;3.57;1.87;;;;;;;12.69;73.55;101407.34;6065242;29;20241;-70
2022/11/02 07:42:52;;;;;;;2.60;1.80;;;;;;;12.74;73.52;101410.50;6040146;29;20545;-71
2022/11/02 07:46:15;;;;;;;3.90;2.80;;;;;;;12.72;73.46;101402.50;6052387;29;20686;-70
2022/11/02 07:49:35;;;;;;;2.47;1.50;;;;;;;12.67;72.97;101402.09;6064695;29;20620;-71
2022/11/02 07:52:59;;;;;;;4.17;1.70;;;;;;;12.70;73.17;101412.63;6055280;29;20233;-71
2022/11/02 07:56:19;;;;;;;2.17;0.83;;;;;;;12.87;72.82;101402.97;6064934;29;20347;-73
2022/11/02 07:59:40;;;;;;;1.47;0.93;;;;;;;12.85;72.65;101408.53;6054437;29;20615;-70
2022/11/02 08:03:02;;;;;;;4.57;1.80;;;;;;;13.01;71.45;101401.75;6051873;29;20248;-77
2022/11/02 08:06:23;;;;;;;2.73;1.63;;;;;;;13.16;70.71;101414.78;6064936;29;20233;-77
2022/11/02 08:09:46;;;;;;;4.80;1.23;;;;;;;13.11;70.58;101402.66;6067503;29;20253;-75
2022/11/02 08:13:07;;;;;;;7.70;1.50;;;;;;;13.32;69.99;101411.53;6060410;29;20237;-81
2022/11/02 08:16:28;;;;;;;4.37;1.63;;;;;;;13.28;69.52;101415.53;6063504;29;20332;-74
2022/11/02 08:19:48;;;;;;;2.20;1.50;;;;;;;13.19;70.02;101411.81;6056233;29;20244;-76
2022/11/02 08:23:10;;;;;;;1.57;1.10;;;;;;;13.21;69.85;101409.81;6055766;29;20316;-77
2022/11/02 08:26:34;;;;;;;2.50;1.47;;;;;;;13.65;68.75;101413.84;6068048;29;20233;-74
2022/11/02 08:29:55;;;;;;;3.27;2.30;;;;;;;13.47;68.66;101434.50;6058590;29;20557;-76
2022/11/02 08:33:17;;;;;;;1.67;1.20;;;;;;;13.52;68.66;101424.09;6049892;29;20257;-74
2022/11/02 08:36:38;;;;;;;4.53;1.33;;;;;;;13.51;68.30;101427.81;6065481;29;20324;-77
2022/11/02 08:39:59;;;;;;;3.57;0.97;;;;;;;13.79;67.49;101429.66;6068861;29;20244;-76
2022/11/02 08:43:21;;;;;;;8.10;1.53;;;;;;;14.25;65.47;101429.75;6058651;29;20225;-75
2022/11/02 08:46:42;;;;;;;4.50;1.33;;;;;;;15.84;60.85;101424.78;6060144;29;20274;-75
2022/11/02 08:50:04;;;;;;;4.37;2.83;;;;;;;16.86;56.72;101426.69;6073427;29;20827;-75
2022/11/02 08:53:25;;;;;;;3.55;1.23;;;;;;;16.36;56.89;101428.41;6060619;29;20232;-73
2022/11/02 08:56:45;;;;;;;4.10;1.80;;;;;;;16.23;58.25;101455.19;6068103;29;20245;-72
2022/11/02 09:00:09;;;;;;;5.03;1.03;;;;;;;14.86;62.52;101440.13;6046614;29;20257;-75
2022/11/02 09:03:30;;;;;;;1.13;0.80;;;;;;;14.41;64.10;101442.75;6047849;29;20237;-73
2022/11/02 09:06:51;;;;;;;4.00;3.10;;;;;;;15.37;60.95;101454.00;6065853;29;20233;-76
2022/11/02 09:10:12;;;;;;;1.93;1.53;;;;;;;16.33;57.71;101453.22;6058077;29;21040;-76
2022/11/02 09:13:33;;;;;;;3.10;1.13;;;;;;;14.53;63.19;101443.41;6059851;29;20512;-75
2022/11/02 09:16:55;;;;;;;6.13;1.97;;;;;;;13.86;65.67;101449.78;6064777;29;20233;-76
2022/11/02 09:20:18;;;;;;;5.97;3.10;;;;;;;13.90;66.15;101458.47;6064260;29;20241;-76
2022/11/02 09:23:38;;;;;;;3.77;2.63;;;;;;;14.27;64.31;101494.69;6055610;29;20484;-76
2022/11/02 09:26:59;;;;;;;3.03;2.23;;;;;;;14.27;64.05;101478.41;6062595;29;20234;-75
2022/11/02 09:30:21;;;;;;;3.63;1.00;;;;;;;13.89;65.77;101487.44;6057902;29;20233;-71
2022/11/02 09:33:43;;;;;;;2.67;1.30;;;;;;;13.89;65.77;101481.16;6062144;29;20635;-76
2022/11/02 09:37:04;;;;;;;6.60;1.73;;;;;;;13.87;65.54;101484.00;6064719;29;20236;-74
2022/11/02 09:40:30;;;;;;;3.47;1.40;;;;;;;14.80;63.46;101481.44;6060472;29;20229;-75
2022/11/02 09:44:00;;;;;;;1.47;1.37;;;;;;;14.07;64.25;101485.72;6060520;29;20534;-76
2022/11/02 09:47:22;;;;;;;9.13;2.13;;;;;;;13.76;65.44;101507.69;6053603;29;20225;-73
2022/11/02 09:50:49;;;;;;;7.17;1.50;;;;;;;13.56;65.25;101498.66;6067248;29;20402;-76
2022/11/02 09:54:16;;;;;;;3.00;0.97;;;;;;;13.61;65.81;101482.84;6063884;29;20237;-76
2022/11/02 09:57:38;;;;;;;1.73;1.23;;;;;;;13.49;65.70;101506.50;6055667;29;20249;-71
2022/11/02 10:01:09;;;;;;;1.67;0.93;;;;;;;13.70;66.39;101492.84;6061013;29;20237;-74
2022/11/02 10:04:48;;;;;;;1.57;1.10;;;;;;;13.86;66.11;101489.56;6062692;29;20249;-75
2022/11/02 10:08:31;;;;;;;2.97;0.90;;;;;;;13.76;66.10;101492.28;6061165;29;20681;-74
2022/11/02 10:11:57;;;;;;;2.83;1.23;;;;;;;13.73;66.16;101488.97;6066282;29;20320;-74
2022/11/02 10:15:22;;;;;;;8.63;1.97;;;;;;;13.72;66.59;101499.00;6056862;29;20316;-74
2022/11/02 10:18:48;;;;;;;2.17;1.63;;;;;;;13.07;72.55;101514.91;6061896;29;20319;-75
2022/11/02 10:22:12;;;;;;;3.40;1.37;;;;;;;12.49;79.96;101520.03;6051110;29;20249;-74
2022/11/02 10:25:35;;;;;;;1.43;1.20;;;;;;;12.31;80.49;101524.28;6072346;29;20237;-72
2022/11/02 10:28:59;;;;;;;4.43;2.50;;;;;;;13.39;79.78;101515.63;6068879;29;20578;-75
2022/11/02 10:32:20;;;;;;;3.77;2.17;;;;;;;17.53;64.28;101508.41;6047393;29;20632;-75
2022/11/02 10:35:52;;;;;;;3.40;1.50;;;;;;;14.51;70.57;101519.53;6073118;29;20242;-75
2022/11/02 10:39:21;;;;;;;1.27;0.90;;;;;;;15.05;66.66;101521.50;6053846;29;20229;-75
2022/11/02 10:42:58;;;;;;;3.70;1.15;;;;;;;18.32;56.04;101529.69;6061790;29;20232;-76
2022/11/02 10:46:46;;;;;;;2.50;1.63;;;;;;;18.68;54.23;101530.22;6052249;29;20233;-76
2022/11/02 10:50:29;;;;;;;1.55;1.10;;;;;;;18.43;53.82;101540.25;6054751;29;20320;-76
2022/11/02 10:53:52;;;;;;;2.25;1.30;;;;;;;18.91;52.76;101529.31;6061195;29;20236;-76
2022/11/02 10:57:14;;;;;;;2.15;1.38;;;;;;;16.90;57.31;101555.25;6054306;29;20241;-71
2022/11/02 11:00:37;;;;;;;1.42;1.33;;;;;;;20.53;49.18;101523.84;6069746;29;20340;-75
2022/11/02 11:04:00;;;;;;;4.97;1.52;;;;;;;14.91;64.22;101568.16;6062087;29;20630;-75
2022/11/02 11:07:26;;;;;;;3.55;1.20;;;;;;;14.92;64.49;101556.28;6048854;29;20515;-76
2022/11/02 11:10:46;;;;;;;1.92;1.73;;;;;;;14.92;65.09;101565.28;6071853;29;20244;-76
2022/11/02 11:14:15;;;;;;;2.47;1.07;;;;;;;14.58;65.40;101568.66;6059493;29;20252;-75
2022/11/02 11:17:40;;;;;;;1.73;1.20;;;;;;;15.20;63.30;101558.06;6055477;29;20243;-77
2022/11/02 11:21:01;;;;;;;5.17;1.97;;;;;;;14.63;64.03;101577.19;6070789;29;20249;-76
2022/11/02 11:24:28;;;;;;;1.83;0.97;;;;;;;14.26;64.94;101577.06;6065380;29;20225;-72
2022/11/02 11:27:53;;;;;;;1.53;1.33;;;;;;;14.20;64.98;101564.94;6060283;29;20228;-75
2022/11/02 11:31:16;;;;;;;2.00;1.80;;;;;;;15.13;61.97;101581.38;6065437;29;20221;-75
2022/11/02 11:34:39;;;;;;;2.47;1.77;;;;;;;15.76;59.13;101574.25;6065634;29;20611;-76
2022/11/02 11:38:03;;;;;;;2.77;1.83;;;;;;;14.46;64.03;101588.81;6051847;29;20271;-77
2022/11/02 11:41:24;;;;;;;3.70;1.43;;;;;;;16.34;58.64;101600.00;6061984;29;20233;-74
2022/11/02 11:44:51;;;;;;;4.30;2.30;;;;;;;15.32;62.41;101580.44;6068007;29;20324;-76
2022/11/02 11:48:24;;;;;;;1.57;0.70;;;;;;;16.38;59.83;101571.47;6050224;29;20237;-76
2022/11/02 11:51:51;;;;;;;1.37;0.87;;;;;;;14.82;62.36;101596.19;6064645;29;20558;-75
2022/11/02 11:55:24;;;;;;;5.73;1.10;;;;;;;13.96;64.86;101601.56;6062080;29;20262;-74
2022/11/02 11:58:51;;;;;;;1.50;1.03;;;;;;;13.88;66.13;101605.00;6060512;29;20240;-74
2022/11/02 12:02:22;;;;;;;2.30;1.00;;;;;;;13.52;67.88;101627.25;6043591;29;20228;-71
2022/11/02 12:05:54;;;;;;;1.83;0.70;;;;;;;13.68;70.55;101629.47;6059971;29;20832;-71
2022/11/02 12:09:25;;;;;;;4.23;0.90;;;;;;;13.27;70.66;101673.75;6059931;29;20253;-70
2022/11/02 12:13:04;;;;;;;2.70;0.70;;;;;;;13.02;71.90;101642.50;6045342;29;20686;-69
2022/11/02 12:16:33;;;;;;;3.03;1.87;;;;;;;13.05;72.60;101630.59;6053751;29;20249;-72
2022/11/02 12:20:12;;;;;;;3.90;1.90;;;;;;;13.17;72.07;101611.44;6046966;29;20233;-72
2022/11/02 12:23:52;;;;;;;1.63;0.97;;;;;;;12.91;71.76;101612.84;6060879;29;20236;-73
2022/11/02 12:27:28;;;;;;;2.93;0.77;;;;;;;13.06;71.86;101629.63;6051146;29;20679;-74
2022/11/02 12:30:57;;;;;;;0.70;0.70;;;;;;;13.55;69.63;101645.97;6075546;29;20228;-75
2022/11/02 12:34:36;;;;;;;1.10;0.93;;;;;;;13.87;68.91;101633.06;6067718;29;20609;-76
2022/11/02 12:38:14;;;;;;;0.70;0.70;;;;;;;14.11;67.20;101660.69;6058781;29;20233;-74
2022/11/02 12:41:44;;;;;;;1.53;0.80;;;;;;;14.13;66.89;101642.41;6061533;29;20316;-74
2022/11/02 12:45:19;;;;;;;2.57;0.97;;;;;;;14.22;66.26;101648.88;6072187;29;20237;-75
2022/11/02 12:48:49;;;;;;;8.43;1.10;;;;;;;14.65;64.64;101657.47;6063874;29;20263;-74
2022/11/02 12:52:24;;;;;;;3.63;1.50;;;;;;;14.72;64.06;101676.78;6063162;29;20232;-78
2022/11/02 12:55:49;;;;;;;4.00;1.03;;;;;;;15.17;62.92;101672.41;6073820;29;20527;-77
2022/11/02 12:59:16;;;;;;;4.40;1.57;;;;;;;14.87;61.70;101657.16;6067599;29;20224;-75
2022/11/02 13:02:49;;;;;;;0.93;0.80;;;;;;;14.45;63.08;101682.03;6054779;29;20236;-74
2022/11/02 13:06:15;;;;;;;2.53;0.73;;;;;;;14.21;63.64;101677.81;6070286;29;20237;-73
2022/11/02 13:09:39;;;;;;;2.43;0.97;;;;;;;13.95;64.47;101675.78;6065875;29;20307;-79
2022/11/02 13:13:02;;;;;;;1.70;1.57;;;;;;;13.80;65.50;101664.47;6054165;29;20237;-75
2022/11/02 13:16:31;;;;;;;8.33;1.23;;;;;;;13.61;65.73;101683.34;6057858;29;20237;-76
2022/11/02 13:19:56;;;;;;;1.77;0.63;;;;;;;13.61;64.55;101705.88;6071405;29;20225;-78
2022/11/02 13:23:28;;;;;;;2.83;1.00;;;;;;;13.60;65.55;101717.69;6065748;29;20347;-74
2022/11/02 13:26:51;;;;;;;0.80;0.80;;;;;;;13.01;67.73;101753.63;6064912;29;20233;-76
2022/11/02 13:30:14;;;;;;;2.40;1.20;;;;;;;12.69;69.25;101772.56;6063134;29;20528;-76
2022/11/02 13:33:43;;;;;;;1.90;1.03;;;;;;;12.69;69.29;101765.31;6058690;29;20232;-78
2022/11/02 13:37:09;;;;;;;1.70;1.00;;;;;;;12.72;70.04;101770.47;6067156;29;20257;-78
2022/11/02 13:40:37;;;;;;;2.30;1.43;;;;;;;12.60;70.83;101782.31;6058203;29;20237;-75
2022/11/02 13:44:17;;;;;;;2.07;0.90;;;;;;;12.67;72.62;101774.53;6065850;29;20224;-76
2022/11/02 13:48:17;;;;;;;4.53;1.10;;;;;;;12.69;72.68;101776.16;6048589;29;20248;-74
2022/11/02 13:51:43;;;;;;;1.90;1.27;;;;;;;12.74;73.75;101787.47;6057166;29;20326;-74
2022/11/02 13:55:09;;;;;;;2.80;0.80;;;;;;;12.74;73.05;101797.41;6051061;29;20229;-77
2022/11/02 13:58:34;;;;;;;5.63;2.03;;;;;;;13.03;72.93;101793.13;6062670;29;20259;-77
2022/11/02 14:01:57;;;;;;;1.97;1.23;;;;;;;13.42;72.15;101784.34;6060824;29;20275;-77
2022/11/02 14:05:25;;;;;;;4.00;1.47;;;;;;;14.00;69.61;101781.94;6073620;29;20225;-77
2022/11/02 14:08:52;;;;;;;2.30;1.00;;;;;;;14.13;68.67;101783.44;6058638;29;20237;-75
2022/11/02 14:12:39;;;;;;;2.53;1.13;;;;;;;14.61;66.58;101769.16;6052826;29;20229;-76
2022/11/02 14:16:00;;;;;;;3.37;1.00;;;;;;;15.46;63.54;101767.50;6062682;29;20249;-74
2022/11/02 14:19:24;;;;;;;3.00;1.60;;;;;;;14.58;65.93;101777.63;6063968;29;20319;-77
2022/11/02 14:23:29;;;;;;;2.67;1.80;;;;;;;13.80;69.11;101789.13;6050976;29;20237;-76
2022/11/02 14:26:54;;;;;;;6.70;1.90;;;;;;;13.31;69.53;101795.22;6061090;29;20509;-74
2022/11/02 14:30:46;;;;;;;2.40;1.27;;;;;;;13.23;70.53;101795.03;6061107;29;20245;-74
2022/11/02 14:34:30;;;;;;;6.77;2.03;;;;;;;13.26;69.70;101810.16;6064961;29;20236;-74
2022/11/02 14:38:12;;;;;;;3.73;1.10;;;;;;;13.25;68.52;101803.00;6062051;29;20800;-76
2022/11/02 14:41:44;;;;;;;4.73;3.20;;;;;;;13.29;69.25;101801.75;6069884;29;20651;-76
2022/11/02 14:45:29;;;;;;;1.83;1.00;;;;;;;13.10;68.97;101805.16;6061909;29;20706;-74
2022/11/02 14:48:55;;;;;;;1.20;0.90;;;;;;;13.10;68.79;101807.88;6066774;29;20549;-75
2022/11/02 14:52:26;;;;;;;4.80;2.07;;;;;;;13.11;69.11;101804.19;6056660;29;20237;-77
2022/11/02 14:55:53;;;;;;;3.23;1.20;;;;;;;13.15;69.27;101812.91;6076822;29;20233;-76
2022/11/02 14:59:18;;;;;;;1.20;1.13;;;;;;;13.11;68.34;101814.16;6066119;29;20233;-74
2022/11/02 15:02:40;;;;;;;2.20;1.10;;;;;;;13.09;67.63;101819.72;6051185;29;20236;-77
2022/11/02 15:06:06;;;;;;;3.30;0.97;;;;;;;13.04;66.24;101821.94;6073734;29;20237;-78
2022/11/02 15:09:56;;;;;;;4.13;1.87;;;;;;;13.04;65.37;101818.34;6053315;29;20236;-76
2022/11/02 15:13:32;;;;;;;8.73;1.93;;;;;;;12.97;64.58;101823.41;6058060;29;20252;-77
2022/11/02 15:16:53;;;;;;;2.67;1.17;;;;;;;12.90;63.87;101807.81;6060875;29;20237;-76
2022/11/02 15:20:29;;;;;;;4.77;1.43;;;;;;;12.86;63.35;101823.44;6052925;29;20611;-75
2022/11/02 15:23:58;;;;;;;3.03;2.40;;;;;;;12.84;63.11;101812.75;6068779;29;20732;-75
2022/11/02 15:27:20;;;;;;;6.00;1.47;;;;;;;12.82;62.46;101812.03;6057018;29;20224;-77
2022/11/02 15:30:45;;;;;;;1.40;0.97;;;;;;;12.75;62.17;101818.06;6065292;29;20230;-76
2022/11/02 15:34:16;;;;;;;1.87;0.83;;;;;;;12.71;62.03;101817.47;6068599;29;20248;-78
2022/11/02 15:37:38;;;;;;;2.27;1.23;;;;;;;12.63;62.58;101817.22;6057400;29;20257;-79
2022/11/02 15:41:16;;;;;;;3.13;1.77;;;;;;;12.60;63.31;101820.19;6064909;29;20225;-77
2022/11/02 15:45:22;;;;;;;5.70;2.17;;;;;;;12.55;63.95;101817.00;6066590;29;20504;-77
2022/11/02 15:48:50;;;;;;;1.77;1.07;;;;;;;12.52;64.68;101817.25;6057520;29;20240;-78
2022/11/02 15:52:20;;;;;;;5.67;1.70;;;;;;;12.50;64.74;101816.50;6061231;29;20505;-79
2022/11/02 15:55:52;;;;;;;2.50;1.50;;;;;;;12.55;64.22;101819.72;6051742;29;20240;-74
2022/11/02 15:59:36;;;;;;;9.00;2.80;;;;;;;12.46;65.00;101822.28;6056103;29;20233;-74
2022/11/02 16:03:02;;;;;;;6.87;1.47;;;;;;;12.42;65.29;101831.63;6058471;29;20225;-73
2022/11/02 16:06:28;;;;;;;1.30;0.93;;;;;;;12.44;64.68;101826.97;6045601;29;20706;-76
2022/11/02 16:09:49;;;;;;;1.80;1.63;;;;;;;12.50;64.24;101831.88;6061887;29;20645;-74